Time,TemperatureF,DewpointF,PressureIn,WindDirection,WindDirectionDegrees,WindSpeedMPH,WindSpeedGustMPH,Humidity,HourlyPrecipIn,Conditions,Clouds,dailyrainin,SoftwareType,DateUTC
2013-09-28 00:00:00,52.8,51.4,30.16,SSW,200,0.0,0.0,95,0.00,,,0.00,Wunderground v.1.15,2013-09-28 04:00:00,
2013-09-28 00:05:00,52.8,51.4,30.16,SSW,200,0.0,0.0,95,0.00,,,0.00,Wunderground v.1.15,2013-09-28 04:05:00,
2013-09-28 00:10:00,52.6,51.2,30.16,SSW,200,0.0,0.0,95,0.00,,,0.00,Wunderground v.1.15,2013-09-28 04:10:00,
2013-09-28 00:15:00,52.5,51.1,30.16,SSW,200,0.0,0.0,95,0.00,,,0.00,Wunderground v.1.15,2013-09-28 04:15:00,
2013-09-28 00:20:00,52.2,50.8,30.16,SSW,200,0.0,0.0,95,0.00,,,0.00,Wunderground v.1.15,2013-09-28 04:20:00,
2013-09-28 00:25:00,51.9,50.5,30.16,SSW,200,0.0,0.0,95,0.00,,,0.00,Wunderground v.1.15,2013-09-28 04:25:00,
2013-09-28 00:30:00,51.6,50.2,30.16,SSW,200,0.0,0.0,95,0.00,,,0.00,Wunderground v.1.15,2013-09-28 04:30:00,
2013-09-28 00:40:00,51.4,50.3,30.16,SSW,200,0.0,0.0,96,0.00,,,0.00,Wunderground v.1.15,2013-09-28 04:40:00,
2013-09-28 00:45:00,51.4,50.3,30.16,SSW,200,0.0,0.0,96,0.00,,,0.00,Wunderground v.1.15,2013-09-28 04:45:00,
2013-09-28 00:50:00,51.4,50.3,30.16,SSW,200,0.0,0.0,96,0.00,,,0.00,Wunderground v.1.15,2013-09-28 04:50:00,
2013-09-28 01:00:00,51.1,50.0,30.17,SSW,200,0.0,0.0,96,0.00,,,0.00,Wunderground v.1.15,2013-09-28 05:00:00,
2013-09-28 01:05:00,51.0,49.9,30.17,SSW,200,0.0,0.0,96,0.00,,,0.00,Wunderground v.1.15,2013-09-28 05:05:00,
2013-09-28 01:10:00,50.7,49.6,30.17,SSW,200,0.0,0.0,96,0.00,,,0.00,Wunderground v.1.15,2013-09-28 05:10:00,
2013-09-28 01:20:00,50.2,49.1,30.17,SSW,200,0.0,0.0,96,0.00,,,0.00,Wunderground v.1.15,2013-09-28 05:20:00,
2013-09-28 01:25:00,49.9,48.8,30.17,SSW,200,0.0,0.0,96,0.00,,,0.00,Wunderground v.1.15,2013-09-28 05:25:00,
2013-09-28 01:35:00,49.8,49.0,30.17,SSW,200,0.0,0.0,97,0.00,,,0.00,Wunderground v.1.15,2013-09-28 05:35:00,
2013-09-28 01:40:00,49.8,49.0,30.17,SSW,200,0.0,0.0,97,0.00,,,0.00,Wunderground v.1.15,2013-09-28 05:40:00,
2013-09-28 01:50:00,49.5,48.7,30.17,SSW,200,0.0,0.0,97,0.00,,,0.00,Wunderground v.1.15,2013-09-28 05:50:00,
2013-09-28 01:55:00,49.4,48.6,30.17,SSW,200,0.0,0.0,97,0.00,,,0.00,Wunderground v.1.15,2013-09-28 05:55:00,
2013-09-28 02:05:00,49.2,48.4,30.17,SSW,200,0.0,0.0,97,0.00,,,0.00,Wunderground v.1.15,2013-09-28 06:05:00,
2013-09-28 02:10:00,49.2,48.4,30.16,SSW,200,0.0,0.0,97,0.00,,,0.00,Wunderground v.1.15,2013-09-28 06:10:00,
2013-09-28 02:15:00,49.2,48.4,30.17,SSW,200,0.0,0.0,97,0.00,,,0.00,Wunderground v.1.15,2013-09-28 06:15:00,
2013-09-28 02:20:00,49.1,48.3,30.17,SSW,200,0.0,0.0,97,0.00,,,0.00,Wunderground v.1.15,2013-09-28 06:20:00,
2013-09-28 02:30:00,48.8,48.0,30.17,SSW,200,0.0,0.0,97,0.00,,,0.00,Wunderground v.1.15,2013-09-28 06:30:00,
2013-09-28 02:35:00,48.5,47.7,30.17,SSW,200,0.0,0.0,97,0.00,,,0.00,Wunderground v.1.15,2013-09-28 06:35:00,
2013-09-28 02:40:00,48.3,47.5,30.17,SSW,200,0.0,0.0,97,0.00,,,0.00,Wunderground v.1.15,2013-09-28 06:40:00,
2013-09-28 02:45:00,48.2,47.4,30.16,SSW,200,0.0,0.0,97,0.00,,,0.00,Wunderground v.1.15,2013-09-28 06:45:00,
2013-09-28 02:50:00,48.2,47.7,30.16,SSW,200,0.0,0.0,98,0.00,,,0.00,Wunderground v.1.15,2013-09-28 06:50:00,
2013-09-28 03:00:00,48.3,47.5,30.16,SSW,200,0.0,0.0,97,0.00,,,0.00,Wunderground v.1.15,2013-09-28 07:00:00,
2013-09-28 03:10:00,48.0,47.5,30.17,SSW,200,0.0,0.0,98,0.00,,,0.00,Wunderground v.1.15,2013-09-28 07:10:00,
2013-09-28 03:20:00,48.0,47.5,30.17,SSW,200,0.0,0.0,98,0.00,,,0.00,Wunderground v.1.15,2013-09-28 07:20:00,
2013-09-28 03:30:00,48.2,47.7,30.17,SSW,200,0.0,0.0,98,0.00,,,0.00,Wunderground v.1.15,2013-09-28 07:30:00,
2013-09-28 03:40:00,48.2,47.7,30.17,SSW,200,0.0,0.0,98,0.00,,,0.00,Wunderground v.1.15,2013-09-28 07:40:00,
2013-09-28 03:50:00,47.9,47.4,30.16,SSW,200,0.0,0.0,98,0.00,,,0.00,Wunderground v.1.15,2013-09-28 07:50:00,
2013-09-28 04:00:00,47.7,47.2,30.16,SSW,200,0.0,0.0,98,0.00,,,0.00,Wunderground v.1.15,2013-09-28 08:00:00,
2013-09-28 04:05:00,47.7,47.2,30.17,SSW,200,0.0,0.0,98,0.00,,,0.00,Wunderground v.1.15,2013-09-28 08:05:00,
2013-09-28 04:10:00,47.6,47.1,30.17,SSW,200,0.0,0.0,98,0.00,,,0.00,Wunderground v.1.15,2013-09-28 08:10:00,
2013-09-28 04:20:00,47.4,46.9,30.17,SSW,200,0.0,0.0,98,0.00,,,0.00,Wunderground v.1.15,2013-09-28 08:20:00,
2013-09-28 04:30:00,47.3,46.8,30.17,SSW,200,0.0,0.0,98,0.00,,,0.00,Wunderground v.1.15,2013-09-28 08:30:00,
2013-09-28 04:40:00,47.3,47.0,30.17,SSW,200,0.0,0.0,99,0.00,,,0.00,Wunderground v.1.15,2013-09-28 08:40:00,
2013-09-28 04:50:00,47.3,46.8,30.17,SSW,200,0.0,0.0,98,0.00,,,0.00,Wunderground v.1.15,2013-09-28 08:50:00,
2013-09-28 05:00:00,46.8,46.3,30.17,SSW,200,0.0,0.0,98,0.00,,,0.00,Wunderground v.1.15,2013-09-28 09:00:00,
2013-09-28 05:05:00,46.7,46.2,30.18,SSW,200,0.0,0.0,98,0.00,,,0.00,Wunderground v.1.15,2013-09-28 09:05:00,
2013-09-28 05:15:00,46.4,45.9,30.18,SSW,200,0.0,0.0,98,0.00,,,0.00,Wunderground v.1.15,2013-09-28 09:15:00,
2013-09-28 05:20:00,46.1,45.6,30.18,SSW,200,0.0,0.0,98,0.00,,,0.00,Wunderground v.1.15,2013-09-28 09:20:00,
2013-09-28 05:30:00,46.2,45.9,30.18,SSW,200,0.0,0.0,99,0.00,,,0.00,Wunderground v.1.15,2013-09-28 09:30:00,
2013-09-28 05:40:00,46.5,46.2,30.18,SSW,200,0.0,0.0,99,0.00,,,0.00,Wunderground v.1.15,2013-09-28 09:40:00,
2013-09-28 05:50:00,46.4,46.1,30.18,SSW,200,0.0,0.0,99,0.00,,,0.00,Wunderground v.1.15,2013-09-28 09:50:00,
2013-09-28 06:00:00,46.1,45.8,30.18,SSW,200,0.0,0.0,99,0.00,,,0.00,Wunderground v.1.15,2013-09-28 10:00:00,
2013-09-28 06:10:00,46.1,45.8,30.19,SSW,200,0.0,0.0,99,0.00,,,0.00,Wunderground v.1.15,2013-09-28 10:10:00,
2013-09-28 06:20:00,45.8,45.5,30.19,SSW,200,0.0,0.0,99,0.00,,,0.00,Wunderground v.1.15,2013-09-28 10:20:00,
2013-09-28 06:35:00,45.5,45.2,30.20,SSW,200,0.0,0.0,99,0.00,,,0.00,Wunderground v.1.15,2013-09-28 10:35:00,
2013-09-28 06:45:00,45.5,45.2,30.20,SSW,200,0.0,0.0,99,0.00,,,0.00,Wunderground v.1.15,2013-09-28 10:45:00,
2013-09-28 06:50:00,45.7,45.4,30.20,SSW,200,0.0,0.0,99,0.00,,,0.00,Wunderground v.1.15,2013-09-28 10:50:00,
2013-09-28 07:00:00,45.5,45.2,30.20,SSW,200,0.0,0.0,99,0.00,,,0.00,Wunderground v.1.15,2013-09-28 11:00:00,
2013-09-28 07:05:00,45.7,45.4,30.20,SSW,200,0.0,0.0,99,0.00,,,0.00,Wunderground v.1.15,2013-09-28 11:05:00,
2013-09-28 07:15:00,45.7,45.4,30.20,SSW,200,0.0,0.0,99,0.00,,,0.00,Wunderground v.1.15,2013-09-28 11:15:00,
2013-09-28 07:25:00,45.2,44.9,30.21,SSW,200,0.0,0.0,99,0.00,,,0.00,Wunderground v.1.15,2013-09-28 11:25:00,
2013-09-28 07:30:00,45.1,44.8,30.21,SSW,200,0.0,0.0,99,0.00,,,0.00,Wunderground v.1.15,2013-09-28 11:30:00,
2013-09-28 07:35:00,45.1,44.8,30.21,SSW,200,0.0,0.0,99,0.00,,,0.00,Wunderground v.1.15,2013-09-28 11:35:00,
2013-09-28 07:40:00,44.9,44.6,30.22,SSW,200,0.0,0.0,99,0.00,,,0.00,Wunderground v.1.15,2013-09-28 11:40:00,
2013-09-28 07:50:00,45.2,44.9,30.22,SSW,200,0.0,0.0,99,0.00,,,0.00,Wunderground v.1.15,2013-09-28 11:50:00,
2013-09-28 08:00:00,45.5,45.5,30.22,SSW,200,0.0,0.0,100,0.00,,,0.00,Wunderground v.1.15,2013-09-28 12:00:00,
2013-09-28 08:05:00,45.8,45.8,30.22,SSW,200,0.0,0.0,100,0.00,,,0.00,Wunderground v.1.15,2013-09-28 12:05:00,
2013-09-28 08:10:00,46.2,46.2,30.22,SSW,200,0.0,0.0,100,0.00,,,0.00,Wunderground v.1.15,2013-09-28 12:10:00,
2013-09-28 08:15:00,47.1,47.1,30.22,SSW,200,0.0,0.0,100,0.00,,,0.00,Wunderground v.1.15,2013-09-28 12:15:00,
2013-09-28 08:20:00,47.9,47.9,30.22,SSW,200,0.0,0.0,100,0.00,,,0.00,Wunderground v.1.15,2013-09-28 12:20:00,
2013-09-28 08:30:00,49.4,49.4,30.22,SSW,200,0.0,0.0,100,0.00,,,0.00,Wunderground v.1.15,2013-09-28 12:30:00,
2013-09-28 08:35:00,50.1,50.1,30.23,SSW,200,0.0,0.0,100,0.00,,,0.00,Wunderground v.1.15,2013-09-28 12:35:00,
2013-09-28 08:45:00,51.6,51.6,30.23,SSW,200,0.0,0.0,100,0.00,,,0.00,Wunderground v.1.15,2013-09-28 12:45:00,
2013-09-28 08:55:00,52.8,52.8,30.23,SSW,200,0.0,0.0,100,0.00,,,0.00,Wunderground v.1.15,2013-09-28 12:55:00,
2013-09-28 09:05:00,53.5,53.5,30.23,SSW,200,0.0,0.0,100,0.00,,,0.00,Wunderground v.1.15,2013-09-28 13:05:00,
2013-09-28 09:10:00,53.6,53.6,30.23,SSW,200,0.0,0.0,100,0.00,,,0.00,Wunderground v.1.15,2013-09-28 13:10:00,
2013-09-28 09:15:00,53.9,53.9,30.23,SSW,200,0.0,0.0,100,0.00,,,0.00,Wunderground v.1.15,2013-09-28 13:15:00,
2013-09-28 09:20:00,54.4,54.4,30.23,SSW,200,0.0,0.0,100,0.00,,,0.00,Wunderground v.1.15,2013-09-28 13:20:00,
2013-09-28 09:30:00,55.7,55.4,30.23,ESE,123,0.0,2.0,99,0.00,,,0.00,Wunderground v.1.15,2013-09-28 13:30:00,
2013-09-28 09:40:00,56.3,55.2,30.23,NNE,18,1.0,1.0,96,0.00,,,0.00,Wunderground v.1.15,2013-09-28 13:40:00,
2013-09-28 09:50:00,57.0,55.6,30.24,NNE,16,1.0,1.0,95,0.00,,,0.00,Wunderground v.1.15,2013-09-28 13:50:00,
2013-09-28 10:00:00,58.3,55.7,30.24,North,5,1.0,1.0,91,0.00,,,0.00,Wunderground v.1.15,2013-09-28 14:00:00,
2013-09-28 10:20:00,59.3,55.4,30.24,NNE,14,1.0,1.0,87,0.00,,,0.00,Wunderground v.1.15,2013-09-28 14:20:00,
2013-09-28 10:25:00,59.9,55.7,30.24,NNE,14,0.0,1.0,86,0.00,,,0.00,Wunderground v.1.15,2013-09-28 14:25:00,
2013-09-28 10:30:00,60.5,55.6,30.24,NNE,14,0.0,0.0,84,0.00,,,0.00,Wunderground v.1.15,2013-09-28 14:30:00,
2013-09-28 10:40:00,61.2,56.3,30.24,NNE,14,0.0,0.0,84,0.00,,,0.00,Wunderground v.1.15,2013-09-28 14:40:00,
2013-09-28 10:50:00,61.6,56.7,30.24,NNE,14,0.0,0.0,84,0.00,,,0.00,Wunderground v.1.15,2013-09-28 14:50:00,
2013-09-28 11:00:00,61.8,55.6,30.24,NNE,14,0.0,0.0,80,0.00,,,0.00,Wunderground v.1.15,2013-09-28 15:00:00,
2013-09-28 11:10:00,62.9,56.6,30.24,NNE,14,0.0,0.0,80,0.00,,,0.00,Wunderground v.1.15,2013-09-28 15:10:00,
2013-09-28 11:20:00,63.7,56.4,30.24,NNE,14,0.0,0.0,77,0.00,,,0.00,Wunderground v.1.15,2013-09-28 15:20:00,
2013-09-28 11:30:00,64.2,56.1,30.24,NNE,14,0.0,0.0,75,0.00,,,0.00,Wunderground v.1.15,2013-09-28 15:30:00,
2013-09-28 11:35:00,64.2,55.7,30.23,NNE,14,0.0,0.0,74,0.00,,,0.00,Wunderground v.1.15,2013-09-28 15:35:00,
2013-09-28 11:45:00,65.0,56.5,30.23,NNE,14,0.0,0.0,74,0.00,,,0.00,Wunderground v.1.15,2013-09-28 15:45:00,
2013-09-28 11:50:00,65.5,57.4,30.23,NNE,14,0.0,0.0,75,0.00,,,0.00,Wunderground v.1.15,2013-09-28 15:50:00,
2013-09-28 11:55:00,65.6,57.5,30.22,NNE,14,0.0,0.0,75,0.00,,,0.00,Wunderground v.1.15,2013-09-28 15:55:00,
2013-09-28 12:00:00,65.8,57.3,30.22,NNE,14,0.0,0.0,74,0.00,,,0.00,Wunderground v.1.15,2013-09-28 16:00:00,
2013-09-28 12:10:00,66.1,55.2,30.22,NW,319,1.0,1.0,68,0.00,,,0.00,Wunderground v.1.15,2013-09-28 16:10:00,
2013-09-28 12:20:00,66.3,56.6,30.22,NW,319,0.0,0.0,71,0.00,,,0.00,Wunderground v.1.15,2013-09-28 16:20:00,
2013-09-28 12:30:00,67.3,56.0,30.22,NW,319,0.0,0.0,67,0.00,,,0.00,Wunderground v.1.15,2013-09-28 16:30:00,
2013-09-28 12:40:00,67.6,57.9,30.21,NW,320,0.0,0.0,71,0.00,,,0.00,Wunderground v.1.15,2013-09-28 16:40:00,
2013-09-28 12:50:00,68.3,58.5,30.21,NW,319,0.0,0.0,71,0.00,,,0.00,Wunderground v.1.15,2013-09-28 16:50:00,
2013-09-28 13:00:00,68.1,57.1,30.20,NW,319,0.0,0.0,68,0.00,,,0.00,Wunderground v.1.15,2013-09-28 17:00:00,
2013-09-28 13:05:00,67.8,56.0,30.20,NW,319,0.0,0.0,66,0.00,,,0.00,Wunderground v.1.15,2013-09-28 17:05:00,
2013-09-28 13:15:00,68.3,56.1,30.20,NW,320,0.0,3.0,65,0.00,,,0.00,Wunderground v.1.15,2013-09-28 17:15:00,
2013-09-28 13:20:00,68.8,57.4,30.20,North,355,1.0,1.0,67,0.00,,,0.00,Wunderground v.1.15,2013-09-28 17:20:00,
2013-09-28 13:30:00,69.1,55.5,30.19,North,355,0.0,0.0,62,0.00,,,0.00,Wunderground v.1.15,2013-09-28 17:30:00,
2013-09-28 13:40:00,68.6,56.4,30.19,North,355,1.0,1.0,65,0.00,,,0.00,Wunderground v.1.15,2013-09-28 17:40:00,
2013-09-28 13:50:00,68.3,56.5,30.18,North,355,0.0,0.0,66,0.00,,,0.00,Wunderground v.1.15,2013-09-28 17:50:00,
2013-09-28 14:00:00,69.3,55.3,30.17,North,355,0.0,0.0,61,0.00,,,0.00,Wunderground v.1.15,2013-09-28 18:00:00,
2013-09-28 14:10:00,69.3,55.7,30.17,North,355,0.0,0.0,62,0.00,,,0.00,Wunderground v.1.15,2013-09-28 18:10:00,
2013-09-28 14:20:00,70.3,55.3,30.17,North,5,2.0,2.0,59,0.00,,,0.00,Wunderground v.1.15,2013-09-28 18:20:00,
2013-09-28 14:30:00,69.4,55.4,30.16,North,5,2.0,2.0,61,0.00,,,0.00,Wunderground v.1.15,2013-09-28 18:30:00,
2013-09-28 14:40:00,69.9,57.2,30.16,North,5,1.0,1.0,64,0.00,,,0.00,Wunderground v.1.15,2013-09-28 18:40:00,
2013-09-28 14:50:00,69.6,55.1,30.16,North,5,2.0,2.0,60,0.00,,,0.00,Wunderground v.1.15,2013-09-28 18:50:00,
2013-09-28 15:00:00,68.8,53.9,30.15,North,5,1.0,1.0,59,0.00,,,0.00,Wunderground v.1.15,2013-09-28 19:00:00,
2013-09-28 15:10:00,70.3,55.8,30.15,North,5,0.0,0.0,60,0.00,,,0.00,Wunderground v.1.15,2013-09-28 19:10:00,
2013-09-28 15:20:00,71.1,55.1,30.15,North,5,1.0,1.0,57,0.00,,,0.00,Wunderground v.1.15,2013-09-28 19:20:00,
2013-09-28 15:30:00,70.1,55.6,30.15,North,5,0.0,0.0,60,0.00,,,0.00,Wunderground v.1.15,2013-09-28 19:30:00,
2013-09-28 15:40:00,68.9,54.9,30.15,North,5,0.0,0.0,61,0.00,,,0.00,Wunderground v.1.15,2013-09-28 19:40:00,
2013-09-28 15:50:00,69.1,54.2,30.14,North,5,0.0,0.0,59,0.00,,,0.00,Wunderground v.1.15,2013-09-28 19:50:00,
2013-09-28 16:00:00,71.1,55.1,30.14,North,9,0.0,0.0,57,0.00,,,0.00,Wunderground v.1.15,2013-09-28 20:00:00,
2013-09-28 16:10:00,70.8,55.3,30.14,North,11,2.0,2.0,58,0.00,,,0.00,Wunderground v.1.15,2013-09-28 20:10:00,
2013-09-28 16:15:00,69.9,54.4,30.14,North,11,1.0,2.0,58,0.00,,,0.00,Wunderground v.1.15,2013-09-28 20:15:00,
2013-09-28 16:20:00,69.3,55.3,30.14,North,10,0.0,0.0,61,0.00,,,0.00,Wunderground v.1.15,2013-09-28 20:20:00,
2013-09-28 16:30:00,68.9,54.4,30.14,North,10,0.0,0.0,60,0.00,,,0.00,Wunderground v.1.15,2013-09-28 20:30:00,
2013-09-28 16:40:00,68.6,53.7,30.14,North,10,0.0,0.0,59,0.00,,,0.00,Wunderground v.1.15,2013-09-28 20:40:00,
2013-09-28 16:45:00,68.4,54.9,30.14,North,10,0.0,0.0,62,0.00,,,0.00,Wunderground v.1.15,2013-09-28 20:45:00,
2013-09-28 16:50:00,68.4,55.3,30.14,North,10,0.0,0.0,63,0.00,,,0.00,Wunderground v.1.15,2013-09-28 20:50:00,
2013-09-28 17:10:00,69.8,53.9,30.14,North,10,0.0,0.0,57,0.00,,,0.00,Wunderground v.1.15,2013-09-28 21:10:00,
2013-09-28 17:15:00,70.8,55.8,30.13,North,10,0.0,0.0,59,0.00,,,0.00,Wunderground v.1.15,2013-09-28 21:15:00,
2013-09-28 17:20:00,71.5,55.0,30.13,North,10,0.0,0.0,56,0.00,,,0.00,Wunderground v.1.15,2013-09-28 21:20:00,
2013-09-28 17:30:00,71.6,56.5,30.13,North,10,1.0,1.0,59,0.00,,,0.00,Wunderground v.1.15,2013-09-28 21:30:00,
2013-09-28 17:40:00,70.3,54.3,30.13,NNE,12,3.0,4.0,57,0.00,,,0.00,Wunderground v.1.15,2013-09-28 21:40:00,
2013-09-28 17:50:00,69.4,55.8,30.14,NNE,13,1.0,2.0,62,0.00,,,0.00,Wunderground v.1.15,2013-09-28 21:50:00,
2013-09-28 18:00:00,68.9,54.9,30.14,NNE,13,0.0,5.0,61,0.00,,,0.00,Wunderground v.1.15,2013-09-28 22:00:00,
2013-09-28 18:10:00,68.4,55.3,30.13,NNE,13,0.0,0.0,63,0.00,,,0.00,Wunderground v.1.15,2013-09-28 22:10:00,
2013-09-28 18:20:00,67.9,56.1,30.13,NNE,13,1.0,1.0,66,0.00,,,0.00,Wunderground v.1.15,2013-09-28 22:20:00,
2013-09-28 18:30:00,67.1,55.4,30.13,NNE,13,1.0,2.0,66,0.00,,,0.00,Wunderground v.1.15,2013-09-28 22:30:00,
2013-09-28 18:40:00,66.1,55.2,30.14,NNE,13,1.0,1.0,68,0.00,,,0.00,Wunderground v.1.15,2013-09-28 22:40:00,
2013-09-28 18:50:00,65.2,55.2,30.13,NNE,13,1.0,1.0,70,0.00,,,0.00,Wunderground v.1.15,2013-09-28 22:50:00,
2013-09-28 18:55:00,64.7,55.1,30.13,NNE,13,0.0,1.0,71,0.00,,,0.00,Wunderground v.1.15,2013-09-28 22:55:00,
2013-09-28 19:00:00,64.3,55.1,30.13,NNE,13,0.0,0.0,72,0.00,,,0.00,Wunderground v.1.15,2013-09-28 23:00:00,
2013-09-28 19:10:00,63.4,55.0,30.13,NNE,13,0.0,0.0,74,0.00,,,0.00,Wunderground v.1.15,2013-09-28 23:10:00,
2013-09-28 19:20:00,62.7,54.7,30.13,NNE,13,0.0,0.0,75,0.00,,,0.00,Wunderground v.1.15,2013-09-28 23:20:00,
2013-09-28 19:25:00,62.4,54.7,30.14,NNE,13,0.0,0.0,76,0.00,,,0.00,Wunderground v.1.15,2013-09-28 23:25:00,
2013-09-28 19:30:00,62.0,54.3,30.14,NNE,13,0.0,0.0,76,0.00,,,0.00,Wunderground v.1.15,2013-09-28 23:30:00,
2013-09-28 19:36:00,61.6,54.3,30.14,NNE,13,0.0,3.0,77,0.00,,,0.00,Wunderground v.1.15,2013-09-28 23:36:00,
2013-09-28 19:45:00,61.3,54.0,30.14,NNE,13,0.0,0.0,77,0.00,,,0.00,Wunderground v.1.15,2013-09-28 23:45:00,
2013-09-28 19:50:00,61.2,54.3,30.14,NNE,14,0.0,0.0,78,0.00,,,0.00,Wunderground v.1.15,2013-09-28 23:50:00,
2013-09-28 20:00:00,60.7,54.1,30.14,NNE,14,1.0,1.0,79,0.00,,,0.00,Wunderground v.1.15,2013-09-29 00:00:00,
2013-09-28 20:10:00,60.4,53.9,30.14,NNE,15,1.0,1.0,79,0.00,,,0.00,Wunderground v.1.15,2013-09-29 00:10:00,
2013-09-28 20:20:00,60.1,53.9,30.14,NNE,16,0.0,0.0,80,0.00,,,0.00,Wunderground v.1.15,2013-09-29 00:20:00,
2013-09-28 20:25:00,59.9,54.1,30.14,NNE,17,0.0,0.0,81,0.00,,,0.00,Wunderground v.1.15,2013-09-29 00:25:00,
2013-09-28 20:30:00,59.8,54.0,30.14,NNE,17,0.0,0.0,81,0.00,,,0.00,Wunderground v.1.15,2013-09-29 00:30:00,
2013-09-28 20:40:00,59.5,54.0,30.15,NNE,17,0.0,0.0,82,0.00,,,0.00,Wunderground v.1.15,2013-09-29 00:40:00,
2013-09-28 20:50:00,59.0,53.8,30.15,NNE,17,0.0,0.0,83,0.00,,,0.00,Wunderground v.1.15,2013-09-29 00:50:00,
2013-09-28 20:55:00,58.9,53.7,30.16,NNE,17,0.0,0.0,83,0.00,,,0.00,Wunderground v.1.15,2013-09-29 00:55:00,
2013-09-28 21:00:00,58.6,53.5,30.15,NNE,17,0.0,0.0,83,0.00,,,0.00,Wunderground v.1.15,2013-09-29 01:00:00,
2013-09-28 21:10:00,58.0,53.5,30.16,NNE,17,0.0,0.0,85,0.00,,,0.00,Wunderground v.1.15,2013-09-29 01:10:00,
2013-09-28 21:20:00,57.3,52.8,30.16,NNE,17,0.0,0.0,85,0.00,,,0.00,Wunderground v.1.15,2013-09-29 01:20:00,
2013-09-28 21:30:00,56.9,52.8,30.16,NNE,17,0.0,0.0,86,0.00,,,0.00,Wunderground v.1.15,2013-09-29 01:30:00,
2013-09-28 21:40:00,56.3,52.5,30.16,NNE,17,0.0,0.0,87,0.00,,,0.00,Wunderground v.1.15,2013-09-29 01:40:00,
2013-09-28 21:45:00,56.0,52.2,30.16,NNE,17,0.0,0.0,87,0.00,,,0.00,Wunderground v.1.15,2013-09-29 01:45:00,
2013-09-28 21:50:00,55.9,52.4,30.16,NNE,17,0.0,0.0,88,0.00,,,0.00,Wunderground v.1.15,2013-09-29 01:50:00,
2013-09-28 22:00:00,55.7,52.5,30.16,NNE,17,0.0,0.0,89,0.00,,,0.00,Wunderground v.1.15,2013-09-29 02:00:00,
2013-09-28 22:05:00,55.6,52.4,30.16,NNE,17,0.0,0.0,89,0.00,,,0.00,Wunderground v.1.15,2013-09-29 02:05:00,
2013-09-28 22:10:00,55.4,52.2,30.16,NNE,17,0.0,0.0,89,0.00,,,0.00,Wunderground v.1.15,2013-09-29 02:10:00,
2013-09-28 22:20:00,55.1,52.2,30.16,NNE,17,0.0,0.0,90,0.00,,,0.00,Wunderground v.1.15,2013-09-29 02:20:00,
2013-09-28 22:30:00,55.1,52.2,30.16,NNE,17,0.0,0.0,90,0.00,,,0.00,Wunderground v.1.15,2013-09-29 02:30:00,
2013-09-28 22:40:00,55.0,52.1,30.16,NNE,17,0.0,0.0,90,0.00,,,0.00,Wunderground v.1.15,2013-09-29 02:40:00,
2013-09-28 22:45:00,54.8,51.9,30.16,NNE,17,0.0,0.0,90,0.00,,,0.00,Wunderground v.1.15,2013-09-29 02:45:00,
2013-09-28 22:50:00,54.8,51.9,30.16,NNE,17,0.0,0.0,90,0.00,,,0.00,Wunderground v.1.15,2013-09-29 02:50:00,
2013-09-28 23:00:00,54.5,51.6,30.16,NNE,17,0.0,0.0,90,0.00,,,0.00,Wunderground v.1.15,2013-09-29 03:00:00,
2013-09-28 23:05:00,54.4,51.8,30.16,NNE,17,0.0,0.0,91,0.00,,,0.00,Wunderground v.1.15,2013-09-29 03:05:00,
2013-09-28 23:10:00,54.2,51.6,30.16,NNE,17,0.0,0.0,91,0.00,,,0.00,Wunderground v.1.15,2013-09-29 03:10:00,
2013-09-28 23:20:00,53.8,51.2,30.16,NNE,17,0.0,0.0,91,0.00,,,0.00,Wunderground v.1.15,2013-09-29 03:20:00,
2013-09-28 23:30:00,53.2,50.9,30.16,NNE,17,0.0,0.0,92,0.00,,,0.00,Wunderground v.1.15,2013-09-29 03:30:00,
2013-09-28 23:35:00,53.1,50.8,30.16,NNE,17,0.0,0.0,92,0.00,,,0.00,Wunderground v.1.15,2013-09-29 03:35:00,
2013-09-28 23:40:00,52.8,50.5,30.16,NNE,17,0.0,0.0,92,0.00,,,0.00,Wunderground v.1.15,2013-09-29 03:40:00,
2013-09-28 23:45:00,52.8,50.8,30.16,NNE,17,0.0,0.0,93,0.00,,,0.00,Wunderground v.1.15,2013-09-29 03:45:00,
2013-09-28 23:50:00,52.5,50.5,30.16,NNE,17,0.0,0.0,93,0.00,,,0.00,Wunderground v.1.15,2013-09-29 03:50:00,